Time;durP1;ratioP1;P1;durP2;ratioP2;P2;SDS_P1;SDS_P2;PMS_P1;PMS_P2;Temp;Humidity;BMP_temperature;BMP_pressure;BME280_temperature;BME280_humidity;BME280_pressure;Samples;Min_cycle;Max_cycle;Signal;HPM_P1;HPM_P2
2022/01/11 00:03:19;;;;;;;88.50;40.05;;;;;;;1.98;89.04;101453.16;10544272;28;20036;-70
2022/01/11 00:08:32;;;;;;;90.97;39.80;;;;;;;1.93;88.47;101454.75;10530929;22;20067;-76
2022/01/11 00:13:40;;;;;;;85.53;38.83;;;;;;;1.92;88.69;101458.19;10503135;28;20045;-76
2022/01/11 00:18:41;;;;;;;88.95;41.63;;;;;;;2.01;87.69;101459.28;10504500;28;20048;-76
2022/01/11 00:28:44;;;;;;;94.22;40.92;;;;;;;1.98;87.88;101467.00;10504007;28;20059;-76
2022/01/11 00:34:00;;;;;;;103.88;46.28;;;;;;;1.89;88.43;101468.47;10502510;28;20079;-76
2022/01/11 00:39:02;;;;;;;110.45;48.25;;;;;;;1.85;87.87;101475.28;10502135;28;20054;-75
2022/01/11 00:44:05;;;;;;;106.68;50.40;;;;;;;1.63;87.62;101493.69;10506150;28;20040;-75
2022/01/11 00:49:07;;;;;;;118.30;50.92;;;;;;;1.48;88.32;101501.91;10504262;28;20421;-77
2022/01/11 00:54:09;;;;;;;121.53;52.03;;;;;;;1.66;88.23;101501.56;10505340;28;20474;-76
2022/01/11 00:59:11;;;;;;;121.05;54.15;;;;;;;1.64;88.03;101503.22;10502418;28;20045;-75
2022/01/11 01:04:12;;;;;;;115.97;53.10;;;;;;;1.40;88.77;101503.41;10503742;28;20068;-76
2022/01/11 01:09:14;;;;;;;112.43;52.47;;;;;;;1.27;87.64;101516.00;10503878;28;20094;-76
2022/01/11 01:14:21;;;;;;;111.03;48.88;;;;;;;1.14;88.17;101516.44;10503795;28;20096;-76
2022/01/11 01:19:27;;;;;;;108.45;47.45;;;;;;;1.21;87.06;101514.94;10503582;28;20044;-77
2022/01/11 01:24:31;;;;;;;104.75;47.42;;;;;;;1.11;86.86;101525.88;10505673;28;20041;-76
2022/01/11 01:29:33;;;;;;;105.18;49.03;;;;;;;0.72;87.45;101523.78;10486191;28;20045;-76
2022/01/11 01:34:35;;;;;;;97.60;45.58;;;;;;;0.88;86.66;101526.00;10503642;28;20497;-77
2022/01/11 01:39:37;;;;;;;98.13;45.78;;;;;;;0.78;85.58;101526.56;10502181;28;20144;-76
2022/01/11 01:44:40;;;;;;;103.53;45.92;;;;;;;0.69;86.02;101534.03;10501594;28;20045;-76
2022/01/11 01:49:42;;;;;;;96.10;46.58;;;;;;;0.72;85.17;101529.84;10499628;28;20052;-75
2022/01/11 01:54:44;;;;;;;107.78;47.67;;;;;;;0.53;85.96;101537.81;10500316;28;20494;-76
2022/01/11 01:59:46;;;;;;;98.72;47.08;;;;;;;0.58;86.63;101538.88;10499003;28;20060;-75
2022/01/11 02:04:50;;;;;;;97.30;46.70;;;;;;;0.56;85.38;101553.44;10498344;28;20126;-76
2022/01/11 02:09:51;;;;;;;96.47;46.85;;;;;;;0.61;85.79;101559.66;10501341;28;20036;-76
2022/01/11 02:14:53;;;;;;;110.70;53.35;;;;;;;0.54;84.51;101567.19;10502018;28;20409;-76
2022/01/11 02:19:55;;;;;;;97.15;45.28;;;;;;;0.58;82.62;101564.75;10500646;28;20059;-76
2022/01/11 02:24:57;;;;;;;103.03;48.17;;;;;;;0.19;84.84;101580.66;10484665;28;20048;-76
2022/01/11 02:29:59;;;;;;;102.90;48.58;;;;;;;0.15;85.01;101583.09;10500425;28;20144;-77
2022/01/11 02:35:01;;;;;;;109.50;48.03;;;;;;;0.32;83.57;101581.09;10499855;28;20098;-76
2022/01/11 02:40:04;;;;;;;114.55;49.20;;;;;;;0.32;83.79;101581.97;10501161;28;20041;-77
2022/01/11 02:45:14;;;;;;;107.90;49.30;;;;;;;0.22;84.00;101585.94;10499069;28;20055;-76
2022/01/11 02:50:19;;;;;;;104.00;48.40;;;;;;;0.33;83.31;101588.03;10500511;28;20032;-76
2022/01/11 02:55:24;;;;;;;104.43;49.08;;;;;;;0.19;84.24;101583.25;10498480;28;20474;-75
2022/01/11 03:00:29;;;;;;;97.05;47.67;;;;;;;0.32;83.42;101586.25;10499644;28;20067;-76
2022/01/11 03:05:31;;;;;;;111.88;49.42;;;;;;;0.18;82.75;101588.38;10498414;28;20040;-76
2022/01/11 03:10:36;;;;;;;111.60;52.80;;;;;;;0.10;83.98;101602.72;10498828;28;20135;-74
2022/01/11 03:15:40;;;;;;;113.75;51.92;;;;;;;-0.06;83.64;101607.31;10484237;28;20071;-76
2022/01/11 03:20:49;;;;;;;119.70;54.30;;;;;;;-0.08;83.68;101609.00;10498551;28;20052;-75
2022/01/11 03:25:52;;;;;;;115.45;52.67;;;;;;;0.04;83.95;101613.72;10498027;28;20037;-76
2022/01/11 03:30:55;;;;;;;118.25;53.67;;;;;;;-0.05;82.67;101621.13;10498091;28;20070;-77
2022/01/11 03:35:58;;;;;;;128.80;55.75;;;;;;;-0.18;83.12;101624.97;10497483;28;20044;-76
2022/01/11 03:41:00;;;;;;;122.10;55.67;;;;;;;-0.29;83.45;101634.91;10485869;28;20052;-77
2022/01/11 03:46:03;;;;;;;119.68;54.13;;;;;;;-0.36;83.43;101640.66;10505623;28;20044;-77
2022/01/11 03:51:06;;;;;;;125.47;58.08;;;;;;;-0.37;83.90;101643.19;10503489;28;20220;-76
2022/01/11 03:56:22;;;;;;;128.05;57.88;;;;;;;-0.40;83.46;101641.41;10490252;28;20045;-76
2022/01/11 04:01:33;;;;;;;128.07;57.55;;;;;;;-0.38;83.39;101651.78;10506068;28;20049;-77
2022/01/11 04:06:37;;;;;;;133.73;59.65;;;;;;;-0.41;83.65;101652.53;10503939;28;20106;-75
2022/01/11 04:11:39;;;;;;;131.38;58.65;;;;;;;-0.56;84.69;101660.56;10487570;28;20052;-75
2022/01/11 04:16:43;;;;;;;122.30;56.35;;;;;;;-0.51;83.73;101651.28;10503935;28;20115;-76
2022/01/11 04:21:48;;;;;;;89.85;42.95;;;;;;;-0.55;84.03;101649.41;10504675;28;20135;-76
2022/01/11 04:26:50;;;;;;;138.48;61.17;;;;;;;-0.50;84.36;101654.75;10501815;28;20040;-76
2022/01/11 04:31:52;;;;;;;152.07;67.63;;;;;;;-0.41;83.01;101649.94;10501878;28;20044;-76
2022/01/11 04:36:55;;;;;;;150.27;66.75;;;;;;;-0.61;82.97;101651.75;10485561;28;20052;-76
2022/01/11 04:41:57;;;;;;;150.57;64.90;;;;;;;-0.64;81.88;101655.91;10486522;28;20052;-76
2022/01/11 04:47:00;;;;;;;150.70;62.72;;;;;;;-0.66;82.54;101655.00;10501156;28;20094;-76
2022/01/11 04:52:02;;;;;;;139.63;62.17;;;;;;;-0.76;83.02;101659.75;10501707;28;20043;-76
2022/01/11 04:57:05;;;;;;;140.95;62.58;;;;;;;-1.02;84.76;101668.16;10500288;28;20045;-76
2022/01/11 05:02:07;;;;;;;146.75;62.08;;;;;;;-0.98;85.50;101674.31;10499909;28;20040;-76
2022/01/11 05:07:10;;;;;;;142.63;61.67;;;;;;;-0.66;82.18;101675.66;10501531;28;20041;-76
2022/01/11 05:12:13;;;;;;;145.55;63.38;;;;;;;-0.79;82.60;101663.94;10500265;28;20075;-76
2022/01/11 05:17:17;;;;;;;139.38;60.03;;;;;;;-0.63;81.47;101679.22;10485033;28;20110;-76
2022/01/11 05:22:19;;;;;;;133.50;56.85;;;;;;;-0.94;81.68;101690.00;10502442;28;20046;-74
2022/01/11 05:27:21;;;;;;;142.68;58.92;;;;;;;-0.98;81.95;101701.00;10484117;28;20055;-75
2022/01/11 05:32:23;;;;;;;148.18;62.45;;;;;;;-1.14;82.98;101708.94;10501427;28;20139;-76
2022/01/11 05:37:25;;;;;;;139.45;58.80;;;;;;;-1.14;82.57;101699.50;10499142;28;20451;-75
2022/01/11 05:42:27;;;;;;;127.30;53.45;;;;;;;-1.00;80.97;101714.69;10498151;28;20040;-76
2022/01/11 05:47:30;;;;;;;141.38;56.17;;;;;;;-1.06;81.25;101717.91;10499788;28;20124;-76
2022/01/11 05:52:34;;;;;;;154.70;59.72;;;;;;;-1.13;81.68;101719.31;10500318;28;20032;-75
2022/01/11 05:57:37;;;;;;;151.52;58.28;;;;;;;-1.13;82.68;101729.66;10481350;28;20048;-76
2022/01/11 06:02:42;;;;;;;141.52;57.30;;;;;;;-1.49;83.80;101733.22;10495590;28;20098;-75
2022/01/11 06:07:50;;;;;;;144.23;54.75;;;;;;;-1.52;85.59;101736.53;10479894;28;20075;-75
2022/01/11 06:12:53;;;;;;;154.10;56.78;;;;;;;-1.27;83.16;101735.94;10495350;22;20075;-72
2022/01/11 06:17:55;;;;;;;137.68;54.25;;;;;;;-1.03;80.93;101748.97;10483791;28;20051;-71
2022/01/11 06:22:58;;;;;;;132.02;52.00;;;;;;;-1.17;81.56;101747.50;10484828;28;20045;-71
2022/01/11 06:28:00;;;;;;;133.55;51.75;;;;;;;-1.27;82.59;101756.56;10502457;28;20044;-71
2022/01/11 06:33:02;;;;;;;127.40;49.28;;;;;;;-1.19;81.37;101768.09;10484985;28;20056;-71
2022/01/11 06:38:03;;;;;;;138.70;52.33;;;;;;;-1.45;82.63;101771.22;10485073;28;20048;-71
2022/01/11 06:43:07;;;;;;;126.75;49.50;;;;;;;-1.42;81.85;101784.25;10470117;28;20037;-71
2022/01/11 06:48:10;;;;;;;124.25;47.92;;;;;;;-1.27;80.93;101780.66;10483448;28;20049;-71
2022/01/11 06:53:12;;;;;;;122.97;46.55;;;;;;;-1.49;81.48;101788.25;10483103;28;20536;-72
2022/01/11 06:58:19;;;;;;;117.40;46.97;;;;;;;-1.59;81.58;101798.97;10483092;28;20057;-71
2022/01/11 07:03:21;;;;;;;114.63;44.13;;;;;;;-1.67;82.53;101802.91;10504769;28;20041;-73
2022/01/11 07:08:28;;;;;;;117.53;48.90;;;;;;;-1.68;83.18;101817.50;10468590;28;20102;-72
2022/01/11 07:13:30;;;;;;;115.38;46.72;;;;;;;-1.65;82.63;101820.19;10487576;28;20044;-72
2022/01/11 07:18:32;;;;;;;114.63;43.95;;;;;;;-1.71;82.77;101835.38;10491823;28;20102;-73
2022/01/11 07:23:37;;;;;;;123.68;47.95;;;;;;;-1.88;83.61;101836.28;10493745;28;20049;-73
2022/01/11 07:28:39;;;;;;;112.55;41.92;;;;;;;-1.83;83.82;101837.38;10495956;28;20054;-73
2022/01/11 07:33:45;;;;;;;111.40;42.80;;;;;;;-1.88;84.35;101837.16;10478292;28;20382;-72
2022/01/11 07:38:47;;;;;;;104.57;42.85;;;;;;;-1.73;83.78;101852.47;10508587;28;20040;-73
2022/01/11 07:43:55;;;;;;;106.70;43.65;;;;;;;-1.38;80.86;101846.34;10475377;28;20043;-74
2022/01/11 07:49:06;;;;;;;102.95;40.47;;;;;;;-1.18;79.49;101848.97;10492956;28;20055;-73
2022/01/11 07:54:08;;;;;;;113.57;44.30;;;;;;;-1.66;81.53;101854.53;10491334;28;20060;-73
2022/01/11 07:59:13;;;;;;;111.65;45.03;;;;;;;-1.60;82.26;101874.56;10475191;28;20132;-72
2022/01/11 08:04:20;;;;;;;107.70;43.25;;;;;;;-1.39;81.79;101864.34;10475938;28;20123;-73
2022/01/11 08:09:27;;;;;;;107.40;42.88;;;;;;;-1.43;81.01;101873.66;10479315;28;20136;-73
2022/01/11 08:14:29;;;;;;;105.97;43.15;;;;;;;-1.42;80.70;101875.41;10475029;28;20044;-74
2022/01/11 08:19:32;;;;;;;112.35;45.33;;;;;;;-1.61;81.82;101878.84;10492136;28;20132;-73
2022/01/11 08:24:38;;;;;;;121.40;46.58;;;;;;;-1.57;81.75;101885.03;10493546;28;20040;-74
2022/01/11 08:29:42;;;;;;;108.22;43.10;;;;;;;-1.49;81.27;101877.66;10478816;28;20044;-74
2022/01/11 08:34:45;;;;;;;115.57;44.38;;;;;;;-1.60;81.32;101898.63;10490635;28;20464;-74
2022/01/11 08:39:48;;;;;;;108.60;41.60;;;;;;;-1.64;81.30;101890.69;10494091;28;20076;-73
2022/01/11 08:44:50;;;;;;;109.00;41.50;;;;;;;-1.57;81.54;101897.91;10491355;28;20399;-73
2022/01/11 08:49:59;;;;;;;97.43;39.22;;;;;;;-1.81;81.48;101905.38;10489772;28;20497;-73
2022/01/11 08:55:11;;;;;;;100.15;40.33;;;;;;;-1.83;81.71;101906.97;10494793;28;20055;-74
2022/01/11 09:00:18;;;;;;;93.88;39.08;;;;;;;-1.64;81.05;101908.75;10491708;28;20159;-73
2022/01/11 09:05:26;;;;;;;98.70;40.45;;;;;;;-1.68;81.92;101911.97;10475075;28;20048;-74
2022/01/11 09:10:36;;;;;;;98.57;42.03;;;;;;;-1.71;81.80;101912.72;10511595;28;20044;-75
2022/01/11 09:15:38;;;;;;;93.10;37.97;;;;;;;-1.72;81.20;101910.09;10514704;28;20050;-74
2022/01/11 09:20:42;;;;;;;89.10;37.25;;;;;;;-1.53;79.38;101908.44;10529706;28;20497;-74
2022/01/11 09:25:45;;;;;;;91.00;37.05;;;;;;;-1.48;80.49;101915.53;10528417;28;20037;-74
2022/01/11 09:30:51;;;;;;;93.88;38.15;;;;;;;-1.53;80.60;101915.31;10529019;28;20048;-74
2022/01/11 09:35:53;;;;;;;92.50;37.72;;;;;;;-1.46;79.60;101919.94;10531955;28;20059;-74
2022/01/11 09:40:58;;;;;;;85.78;36.47;;;;;;;-1.70;80.50;101911.03;10529007;28;20044;-74
2022/01/11 09:46:04;;;;;;;94.80;37.20;;;;;;;-1.83;80.91;101922.44;10529003;28;20036;-74
2022/01/11 09:51:05;;;;;;;92.38;36.25;;;;;;;-1.72;80.37;101923.00;10527718;28;20463;-73
2022/01/11 09:56:10;;;;;;;93.72;37.15;;;;;;;-1.69;80.74;101929.16;10530908;28;20054;-74
2022/01/11 10:01:14;;;;;;;94.70;38.10;;;;;;;-1.91;81.60;101932.38;10527708;28;20066;-74
2022/01/11 10:06:37;;;;;;;103.18;38.60;;;;;;;-1.64;80.59;101925.13;10545487;28;20497;-74
2022/01/11 10:11:42;;;;;;;93.90;37.70;;;;;;;-1.69;81.34;101933.44;10510882;28;20054;-74
2022/01/11 10:16:45;;;;;;;83.10;34.83;;;;;;;-1.44;78.88;101936.38;10527107;28;20050;-74
2022/01/11 10:21:49;;;;;;;95.32;37.72;;;;;;;-1.63;81.18;101924.31;10529727;28;20063;-74
2022/01/11 10:26:57;;;;;;;84.18;36.83;;;;;;;-1.63;81.06;101933.75;10526667;28;20043;-75
2022/01/11 10:32:09;;;;;;;93.65;38.40;;;;;;;-1.45;80.80;101932.03;10527663;28;20052;-74
2022/01/11 10:37:11;;;;;;;87.50;37.90;;;;;;;-1.41;80.87;101933.06;10527125;28;20052;-73
2022/01/11 10:42:32;;;;;;;96.28;38.15;;;;;;;-1.47;79.68;101928.47;10529340;28;20047;-75
2022/01/11 10:47:39;;;;;;;94.78;37.70;;;;;;;-1.28;79.59;101927.66;10528169;28;20421;-75
2022/01/11 10:52:43;;;;;;;94.60;38.95;;;;;;;-1.29;79.73;101933.63;10537038;28;20129;-75
2022/01/11 10:57:54;;;;;;;88.47;37.75;;;;;;;-0.89;77.10;101936.31;10534389;28;20055;-75
2022/01/11 11:03:03;;;;;;;;;;;;;;;-1.08;77.68;101932.03;10538558;28;20497;-74
2022/01/11 11:08:07;;;;;;;;;;;;;;;-0.85;77.50;101929.59;10536855;28;20022;-74
2022/01/11 11:13:17;;;;;;;97.22;38.92;;;;;;;-1.19;78.24;101922.94;10534735;28;20365;-74
2022/01/11 11:18:32;;;;;;;84.93;36.35;;;;;;;-1.02;78.22;101937.50;10533509;28;20068;-74
2022/01/11 11:23:37;;;;;;;94.47;38.72;;;;;;;-1.10;77.53;101925.94;10537407;28;20052;-74
2022/01/11 11:28:39;;;;;;;88.72;38.75;;;;;;;-0.99;77.71;101925.53;10552067;28;20040;-75
2022/01/11 11:33:42;;;;;;;90.97;38.30;;;;;;;-1.13;78.81;101919.75;10552995;28;20131;-75
2022/01/11 11:39:00;;;;;;;89.82;40.28;;;;;;;-1.10;78.36;101919.88;10551065;28;20101;-74
2022/01/11 11:44:13;;;;;;;94.97;40.63;;;;;;;-1.18;78.87;101914.38;10534245;28;20040;-74
2022/01/11 11:49:17;;;;;;;97.13;41.95;;;;;;;-1.07;78.08;101907.09;10533236;28;20055;-74
2022/01/11 11:54:21;;;;;;;85.00;37.85;;;;;;;-0.91;77.68;101916.44;10551174;28;20067;-74
2022/01/11 11:59:25;;;;;;;86.68;38.83;;;;;;;-0.75;76.50;101895.66;10533910;28;20062;-74
2022/01/11 12:04:33;;;;;;;98.50;40.75;;;;;;;-0.85;77.17;101901.19;10533078;28;20040;-74
2022/01/11 12:09:44;;;;;;;99.65;40.40;;;;;;;-0.72;76.65;101888.00;10552557;28;20494;-74
2022/01/11 12:14:46;;;;;;;104.68;40.63;;;;;;;-0.78;77.20;101877.44;10516064;23;20048;-74
2022/01/11 12:19:50;;;;;;;96.63;40.55;;;;;;;-0.82;76.67;101871.25;10506787;28;20062;-76
2022/01/11 12:24:58;;;;;;;93.05;39.72;;;;;;;-0.79;77.59;101873.09;10504601;28;20427;-75
2022/01/11 12:30:07;;;;;;;98.43;40.70;;;;;;;-0.87;77.77;101892.53;10505030;28;20094;-76
2022/01/11 12:35:20;;;;;;;94.53;39.60;;;;;;;-0.79;77.56;101894.63;10487870;28;20048;-75
2022/01/11 12:40:29;;;;;;;92.15;39.28;;;;;;;-0.60;76.39;101891.13;10504724;28;20127;-75
2022/01/11 12:45:52;;;;;;;89.50;38.55;;;;;;;-0.36;73.96;101893.00;10503388;28;20429;-74
2022/01/11 12:51:00;;;;;;;78.32;37.05;;;;;;;-0.77;76.08;101892.09;10504987;28;20386;-76
2022/01/11 12:56:02;;;;;;;;;;;;;;;-0.92;76.42;101896.59;10505127;28;20083;-75
2022/01/11 13:01:17;;;;;;;84.72;34.88;;;;;;;-0.89;76.01;101896.72;10504034;28;20349;-76
2022/01/11 13:06:20;;;;;;;90.32;38.10;;;;;;;-0.73;74.91;101900.88;10504265;28;20040;-75
2022/01/11 13:11:21;;;;;;;86.68;36.47;;;;;;;-1.03;76.09;101890.94;10504238;28;20063;-75
2022/01/11 13:16:26;;;;;;;92.13;37.97;;;;;;;-0.70;74.84;101898.44;10503524;28;20051;-76
2022/01/11 13:21:30;;;;;;;95.30;37.20;;;;;;;-0.96;75.83;101893.00;10503768;28;20041;-75
2022/01/11 13:26:32;;;;;;;95.05;38.55;;;;;;;-0.86;76.10;101895.16;10503230;28;20043;-75
2022/01/11 13:31:37;;;;;;;90.85;37.42;;;;;;;-0.90;76.20;101910.44;10506523;28;20157;-75
2022/01/11 13:36:45;;;;;;;91.28;37.88;;;;;;;-0.66;74.78;101898.63;10503448;28;20040;-75
2022/01/11 13:41:53;;;;;;;89.53;40.05;;;;;;;-0.43;74.80;101889.28;10505154;28;20402;-75
2022/01/11 13:47:04;;;;;;;91.18;36.78;;;;;;;-0.65;73.54;101891.75;10504292;28;20040;-75
2022/01/11 13:52:17;;;;;;;85.45;37.72;;;;;;;-0.69;73.66;101884.69;10503946;28;20502;-75
2022/01/11 13:57:25;;;;;;;86.07;37.25;;;;;;;-0.63;73.23;101888.41;10503276;28;20036;-74
2022/01/11 14:02:33;;;;;;;89.50;39.53;;;;;;;-0.93;76.29;101894.81;10504129;28;20093;-77
2022/01/11 14:07:36;;;;;;;94.35;39.47;;;;;;;-0.83;75.87;101897.88;10505313;28;20036;-77
2022/01/11 14:12:44;;;;;;;86.10;35.53;;;;;;;-0.57;74.09;101904.19;10501714;28;20449;-75
2022/01/11 14:17:57;;;;;;;89.55;37.95;;;;;;;-0.84;75.89;101900.38;10504079;28;20512;-76
2022/01/11 14:23:02;;;;;;;88.30;38.05;;;;;;;-0.98;76.63;101907.50;10502259;28;20044;-76
2022/01/11 14:28:14;;;;;;;85.45;36.83;;;;;;;-0.86;74.47;101902.03;10501998;28;20059;-76
2022/01/11 14:33:31;;;;;;;87.32;37.95;;;;;;;-0.99;75.82;101904.88;10501426;28;20112;-77
2022/01/11 14:38:46;;;;;;;90.97;36.13;;;;;;;-1.17;74.90;101910.97;10501789;28;20132;-75
2022/01/11 14:44:05;;;;;;;86.47;36.25;;;;;;;-1.28;76.42;101905.31;10501675;28;20036;-74
2022/01/11 14:49:11;;;;;;;88.18;36.40;;;;;;;-1.58;76.36;101909.94;10498313;28;20045;-75
2022/01/11 14:54:19;;;;;;;90.70;35.83;;;;;;;-1.06;75.40;101904.63;10504437;28;20119;-75
2022/01/11 14:59:23;;;;;;;84.80;37.95;;;;;;;-1.31;76.67;101902.59;10502636;28;20150;-76
2022/01/11 15:04:31;;;;;;;85.93;35.63;;;;;;;-1.47;77.22;101912.13;10504018;28;20040;-75
2022/01/11 15:09:37;;;;;;;90.38;37.53;;;;;;;-1.17;75.55;101905.81;10504053;28;20517;-75
2022/01/11 15:14:40;;;;;;;88.97;38.20;;;;;;;-1.30;76.63;101900.91;10505098;28;20106;-76
2022/01/11 15:19:42;;;;;;;100.63;40.65;;;;;;;-1.52;77.16;101897.31;10504687;28;20044;-75
2022/01/11 15:24:44;;;;;;;92.60;38.78;;;;;;;-1.26;76.63;101900.22;10504469;28;20052;-75
2022/01/11 15:29:46;;;;;;;86.57;37.75;;;;;;;-1.07;75.70;101889.91;10504213;28;20411;-76
2022/01/11 15:34:48;;;;;;;95.38;38.50;;;;;;;-0.89;74.49;101894.13;10505778;28;20045;-75
2022/01/11 15:39:50;;;;;;;96.95;39.88;;;;;;;-1.44;77.01;101897.69;10512111;28;20048;-76
2022/01/11 15:44:52;;;;;;;95.20;39.08;;;;;;;-1.31;76.66;101892.28;10513855;28;20041;-76
2022/01/11 15:49:53;;;;;;;97.97;39.28;;;;;;;-1.29;76.67;101905.22;10511373;28;20143;-76
2022/01/11 15:54:56;;;;;;;94.38;39.10;;;;;;;-1.11;75.83;101898.31;10511380;28;20409;-76
2022/01/11 15:59:58;;;;;;;102.13;41.03;;;;;;;-1.31;76.71;101920.66;10510342;28;20044;-75
2022/01/11 16:05:00;;;;;;;93.93;37.60;;;;;;;-1.34;76.58;101922.19;10510273;28;20131;-75
2022/01/11 16:10:02;;;;;;;89.50;38.85;;;;;;;-1.21;75.22;101911.63;10510494;28;20119;-75
2022/01/11 16:15:04;;;;;;;89.13;37.50;;;;;;;-1.21;75.06;101928.81;10508951;28;20078;-75
2022/01/11 16:20:08;;;;;;;100.90;39.75;;;;;;;-1.34;75.94;101948.88;10510724;28;20413;-76
2022/01/11 16:25:11;;;;;;;97.15;40.35;;;;;;;-1.42;76.63;101965.69;10506754;28;20068;-73
2022/01/11 16:30:21;;;;;;;96.43;40.17;;;;;;;-1.24;75.97;101957.94;10505276;28;20041;-74
2022/01/11 16:35:24;;;;;;;91.90;39.08;;;;;;;-1.37;75.86;101953.03;10505469;28;20090;-74
2022/01/11 16:45:36;;;;;;;93.80;40.08;;;;;;;-1.42;76.53;101955.38;10507153;28;20071;-73
2022/01/11 16:50:38;;;;;;;84.13;37.67;;;;;;;-1.13;74.89;101954.16;10509342;28;20066;-72
2022/01/11 16:55:40;;;;;;;89.45;38.17;;;;;;;-1.25;75.49;101961.31;10509854;28;20120;-73
2022/01/11 17:00:42;;;;;;;91.10;38.47;;;;;;;-1.40;76.31;101971.81;10507497;28;20057;-72
2022/01/11 17:05:45;;;;;;;87.93;38.42;;;;;;;-1.35;75.77;101979.78;10505751;28;20037;-73
2022/01/11 17:10:46;;;;;;;91.60;37.97;;;;;;;-1.48;76.85;101980.88;10505603;28;20053;-72
2022/01/11 17:15:48;;;;;;;91.90;38.88;;;;;;;-1.35;76.65;101978.06;10488882;28;20078;-72
2022/01/11 17:20:50;;;;;;;90.28;38.03;;;;;;;-1.50;77.58;101968.75;10503875;28;20143;-73
2022/01/11 17:25:53;;;;;;;93.25;36.85;;;;;;;-1.55;78.32;101971.06;10504791;28;20394;-74
2022/01/11 17:30:55;;;;;;;83.80;37.03;;;;;;;-1.11;75.74;101975.75;10505136;28;20113;-73
2022/01/11 17:35:57;;;;;;;97.05;39.85;;;;;;;-1.13;75.75;101973.94;10505689;28;20110;-73
2022/01/11 17:40:59;;;;;;;87.00;38.55;;;;;;;-1.24;76.65;101972.53;10504404;28;20048;-72
2022/01/11 17:46:00;;;;;;;84.88;38.45;;;;;;;-1.32;77.43;101969.63;10504449;28;20115;-72
2022/01/11 17:51:02;;;;;;;92.93;38.65;;;;;;;-1.17;76.24;101967.75;10504221;28;20108;-75
2022/01/11 17:56:05;;;;;;;86.68;37.22;;;;;;;-0.92;75.52;101963.72;10504168;28;20064;-76
2022/01/11 18:01:07;;;;;;;89.45;37.00;;;;;;;-1.11;75.88;101977.44;10508765;28;20054;-76
2022/01/11 18:06:09;;;;;;;99.05;38.53;;;;;;;-1.50;77.93;101994.53;10510390;28;20040;-77
2022/01/11 18:16:38;;;;;;;88.72;38.80;;;;;;;-1.39;78.07;101993.34;10419866;28;20045;-72
2022/01/11 18:21:39;;;;;;;83.82;36.75;;;;;;;-1.34;78.37;101986.69;10401910;28;20113;-71
2022/01/11 18:26:42;;;;;;;88.57;38.30;;;;;;;-0.76;75.52;101987.69;10402506;28;20398;-72
2022/01/11 18:31:44;;;;;;;95.05;37.22;;;;;;;-1.27;77.12;101994.81;10419774;28;20122;-71
2022/01/11 18:36:46;;;;;;;86.15;37.72;;;;;;;-1.24;77.25;101988.00;10414391;28;20469;-71
2022/01/11 18:41:48;;;;;;;85.68;36.45;;;;;;;-1.12;77.48;101999.81;10444282;28;20490;-71
2022/01/11 18:46:49;;;;;;;83.97;37.70;;;;;;;-1.23;77.39;102007.88;10427925;28;20060;-72
2022/01/11 18:51:51;;;;;;;86.47;38.30;;;;;;;-1.34;77.55;101997.00;10403796;28;20048;-72
2022/01/11 18:56:53;;;;;;;99.32;40.45;;;;;;;-1.36;77.95;102020.19;10461292;28;20041;-72
2022/01/11 19:01:56;;;;;;;97.05;40.15;;;;;;;-1.46;79.06;102023.13;10426675;28;20049;-72
2022/01/11 19:06:59;;;;;;;85.55;37.70;;;;;;;-1.53;79.27;102021.03;10425041;28;20044;-71
2022/01/11 19:12:02;;;;;;;81.57;34.50;;;;;;;-1.55;79.38;102026.13;10468347;28;20067;-71
2022/01/11 19:17:07;;;;;;;87.90;38.15;;;;;;;-1.51;79.49;102019.41;10454078;28;20037;-72
2022/01/11 19:22:09;;;;;;;82.20;36.83;;;;;;;-1.13;77.74;102022.97;10410112;28;20081;-72
2022/01/11 19:27:14;;;;;;;84.20;36.83;;;;;;;-1.43;79.38;102025.84;10426034;28;20041;-72
2022/01/11 19:32:17;;;;;;;83.80;35.45;;;;;;;-1.43;79.48;102028.41;10408452;28;20049;-72
2022/01/11 19:37:20;;;;;;;62.28;29.85;;;;;;;-1.39;79.47;102022.59;10426007;28;20041;-71
2022/01/11 19:42:26;;;;;;;81.65;34.95;;;;;;;-1.05;78.82;102031.97;10437620;28;20056;-72
2022/01/11 19:47:31;;;;;;;62.63;30.83;;;;;;;-1.26;80.29;102042.13;10461138;28;20104;-72
2022/01/11 19:52:33;;;;;;;60.15;29.02;;;;;;;-1.09;79.84;102050.69;10427014;28;20100;-72
2022/01/11 19:57:35;;;;;;;35.80;21.55;;;;;;;-0.88;78.28;102045.66;10408302;28;20438;-71
2022/01/11 20:02:37;;;;;;;37.53;22.75;;;;;;;-0.98;79.69;102048.59;10426318;28;20053;-72
2022/01/11 20:07:39;;;;;;;35.22;21.88;;;;;;;-1.25;80.84;102046.47;10408001;28;20540;-72
2022/01/11 20:12:41;;;;;;;32.58;21.52;;;;;;;-1.30;81.28;102037.63;10424841;28;20041;-71
2022/01/11 20:17:42;;;;;;;36.30;21.83;;;;;;;-1.36;82.35;102032.19;10424870;28;20099;-71
2022/01/11 20:28:04;;;;;;;43.80;23.13;;;;;;;-1.29;82.22;102034.22;10426278;28;20042;-72
2022/01/11 20:33:06;;;;;;;34.50;20.65;;;;;;;-1.17;81.46;102031.38;10405916;28;20072;-72
2022/01/11 20:38:08;;;;;;;47.33;23.80;;;;;;;-1.25;82.12;102033.56;10424014;28;20048;-72
2022/01/11 20:43:11;;;;;;;42.55;24.90;;;;;;;-1.14;81.58;102027.25;10406609;28;20045;-72
2022/01/11 20:48:12;;;;;;;48.45;26.08;;;;;;;-1.20;82.78;102034.69;10425577;28;20376;-72
2022/01/11 20:53:19;;;;;;;43.72;24.50;;;;;;;-1.07;82.79;102020.66;10423750;28;20055;-72
2022/01/11 20:58:22;;;;;;;50.10;25.97;;;;;;;-1.07;81.74;102021.53;10406009;28;20053;-72
2022/01/11 21:03:24;;;;;;;48.90;25.98;;;;;;;-1.13;82.16;102025.53;10405860;28;20046;-73
2022/01/11 21:08:26;;;;;;;43.15;25.17;;;;;;;-0.96;81.29;102026.34;10425068;28;20045;-71
2022/01/11 21:13:31;;;;;;;50.72;26.33;;;;;;;-1.09;82.07;102025.75;10405724;28;20099;-71
2022/01/11 21:24:06;;;;;;;53.08;27.08;;;;;;;-1.08;82.31;102035.28;10336184;28;20064;-72
2022/01/11 21:29:08;;;;;;;21.45;18.02;;;;;;;-0.63;80.84;102032.16;10406395;28;20049;-72
2022/01/11 21:34:09;;;;;;;35.08;21.40;;;;;;;-0.82;81.13;102040.78;10422066;28;20048;-72
2022/01/11 21:39:14;;;;;;;38.70;22.98;;;;;;;-1.04;81.87;102047.50;10422895;28;20042;-72
2022/01/11 21:44:25;;;;;;;34.20;22.70;;;;;;;-1.03;82.42;102043.22;10404403;28;20045;-71
2022/01/11 21:49:27;;;;;;;37.00;21.60;;;;;;;-0.55;79.94;102042.03;10403850;28;20380;-72
2022/01/11 21:54:29;;;;;;;33.63;21.13;;;;;;;-0.93;80.60;102040.28;10421401;28;20526;-71
2022/01/11 21:59:31;;;;;;;28.38;21.08;;;;;;;-1.12;82.07;102035.94;10419058;28;20045;-72
2022/01/11 22:04:33;;;;;;;36.33;22.55;;;;;;;-0.69;80.76;102043.13;10401515;28;20041;-71
2022/01/11 22:09:36;;;;;;;39.42;22.77;;;;;;;-0.66;80.39;102034.63;10402683;28;20054;-71
2022/01/11 22:19:53;;;;;;;41.30;23.02;;;;;;;-0.73;80.43;102035.16;10418753;28;20049;-72
2022/01/11 22:24:55;;;;;;;42.67;24.38;;;;;;;-0.92;80.71;102028.25;10402481;28;20111;-71
2022/01/11 22:29:57;;;;;;;40.55;24.38;;;;;;;-1.16;81.89;102033.13;10401849;28;20061;-72
2022/01/11 22:34:58;;;;;;;39.47;22.55;;;;;;;-1.28;82.08;102036.03;10420181;28;20050;-72
2022/01/11 22:40:00;;;;;;;39.97;24.17;;;;;;;-1.27;81.73;102033.50;10420093;28;20080;-71
2022/01/11 22:45:03;;;;;;;40.33;23.88;;;;;;;-1.78;83.29;102026.66;10424147;28;20050;-71
2022/01/11 22:50:05;;;;;;;44.45;25.13;;;;;;;-1.98;84.57;102024.81;10427394;28;20057;-71
2022/01/11 22:55:06;;;;;;;42.30;25.13;;;;;;;-1.83;83.68;102022.97;10427451;28;20037;-72
2022/01/11 23:00:12;;;;;;;45.20;25.58;;;;;;;-1.74;84.21;102014.81;10427013;28;20111;-71
2022/01/11 23:05:17;;;;;;;49.63;26.58;;;;;;;-2.14;85.72;102016.28;10427201;28;20430;-72
2022/01/11 23:10:19;;;;;;;50.05;27.25;;;;;;;-2.01;85.65;102015.22;10426958;28;20411;-71
2022/01/11 23:15:21;;;;;;;48.85;26.67;;;;;;;-2.29;86.09;102015.50;10426045;28;20103;-71
2022/01/11 23:20:23;;;;;;;64.35;31.35;;;;;;;-2.35;87.04;102010.88;10427483;28;20068;-71